Meteo Giornale » Osservazioni meteo Gran Bretagna » Topcliffe Royal

ore: 13:50 - Osservazioni Meteo Topcliffe Royal
Lat. 54° 12' N Lon. 1° 23' W Alt. 28 metri s.l.m.

molto_nuvoloso Europe/London

16 °C

Molto Nuvoloso

Temp. 24 Ore

6 °C

16 °C

Sud

29.6 Km/h

Dew point 10 °C

Umidità 67 %

Visibilità  10 Km

Il sole sorge alle ore 07:00

Il sole tramonta alle ore 18:51

Data e Ora Cielo e Fenomeni T °C DP °C Um. % Pres. hPa Vis. km Vento km/h
Oggi h: 13:50 molto_nuvoloso Molto Nuvoloso 16 10 67 1010 10 S 29.6
Oggi h: 12:50 molto_nuvoloso Molto Nuvoloso 15 10 72 1011 10 S 22.2
Oggi h: 11:50 molto_nuvoloso Molto Nuvoloso 14 10 76 1011 10 S/SE 24
Oggi h: 10:50 coperto_pioggia Pioggia Debole 12 11 93 1012 10 S/SE 20.3
Oggi h: 09:50 nuvoloso Nuvoloso 11 10 93 1013 10 S/SE 18.5
Oggi h: 08:50 molto_nuvoloso Molto Nuvoloso 10 9 93 1013 10 S/SE 16.7
Oggi h: 07:50 nuvoloso Nuvoloso 8 8 100 1013 10 SE 16.7
Oggi h: 06:50 sereno Sereno 6 5 93 1013 10 SE 14.8
Oggi h: 05:50 poco_nuvoloso Poco Nuvoloso 7 7 100 1013 10 SE 16.7
Oggi h: 04:50 sereno Sereno 7 7 100 1013 10 SE 13
Oggi h: 03:50 poco_nuvoloso Poco Nuvoloso 8 6 87 1013 10 S/SE 14.8
Oggi h: 02:50 sereno Sereno 7 5 87 1013 10 S/SE 13
Oggi h: 01:50 poco_nuvoloso Poco Nuvoloso 8 7 93 1013 10 S/SE 16.7
Oggi h: 00:50 sereno Sereno 7 5 87 1013 10 S/SE 11.1
Ieri h: 23:50 sereno Sereno 7 5 87 1012 10 SE 11.1
Ieri h: 22:50 sereno Sereno 8 7 93 1012 10 S 11.1
Ieri h: 21:50 molto_nuvoloso Molto Nuvoloso 11 6 71 1012 10 O/SO 9.3
Ieri h: 20:50 sereno Sereno 10 7 81 1011 10 S/SO 13
Ieri h: 19:50 sereno Sereno 10 7 81 1010 10 S 9.3
Ieri h: 18:50 poco_nuvoloso Poco Nuvoloso 12 7 71 1009 10 O/SO 18.5
Ieri h: 17:50 coperto_pioggia Pioggia 14 8 67 1008 10 O/SO 22.2
Ieri h: 16:50 poco_nuvoloso Poco Nuvoloso 15 7 58 1007 10 O/SO 29.6
Ieri h: 15:50 coperto_pioggia Pioggia Debole 15 8 62 1006 10 O/SO 25.9
Ieri h: 14:50 molto_nuvoloso Precipitazioni 15 8 62 1006 10 O/SO 33.3